Time;durP1;ratioP1;P1;durP2;ratioP2;P2;SDS_P1;SDS_P2;PMS_P1;PMS_P2;Temp;Humidity;BMP_temperature;BMP_pressure;BME280_temperature;BME280_humidity;BME280_pressure;Samples;Min_cycle;Max_cycle;Signal;HPM_P1;HPM_P2
2024/02/25 00:02:05;;;;;;;8.15;2.55;;;1.80;99.90;;;;;;5037807;28;20260;-57
2024/02/25 00:04:31;;;;;;;4.53;1.47;;;1.80;99.90;;;;;;5037647;28;20309;-57
2024/02/25 00:06:57;;;;;;;3.60;1.70;;;1.80;99.90;;;;;;5037736;28;20256;-57
2024/02/25 00:09:22;;;;;;;2.10;1.23;;;1.70;99.90;;;;;;5049476;28;20638;-57
2024/02/25 00:11:48;;;;;;;1.90;1.40;;;1.80;99.90;;;;;;5057450;28;20255;-57
2024/02/25 00:14:13;;;;;;;2.37;1.60;;;1.70;99.90;;;;;;5053346;28;20270;-57
2024/02/25 00:16:39;;;;;;;1.43;1.37;;;1.70;99.90;;;;;;5057673;28;20170;-57
2024/02/25 00:19:05;;;;;;;1.20;1.10;;;1.60;99.90;;;;;;5057311;28;20180;-57
2024/02/25 00:21:31;;;;;;;2.05;1.92;;;1.60;99.90;;;;;;5057408;28;20181;-57
2024/02/25 00:23:57;;;;;;;3.87;2.30;;;1.50;99.90;;;;;;5039424;28;20714;-57
2024/02/25 00:26:23;;;;;;;2.83;1.43;;;1.50;99.90;;;;;;5037731;28;20262;-57
2024/02/25 00:28:48;;;;;;;1.40;1.37;;;1.40;99.90;;;;;;5043861;28;20212;-57
2024/02/25 00:31:14;;;;;;;1.30;1.23;;;1.40;99.90;;;;;;5057647;28;20761;-57
2024/02/25 00:33:39;;;;;;;1.57;1.47;;;1.40;99.90;;;;;;5057998;28;20180;-57
2024/02/25 00:36:07;;;;;;;1.33;1.23;;;1.50;99.90;;;;;;5050290;28;20263;-57
2024/02/25 00:38:33;;;;;;;2.13;1.17;;;1.50;99.90;;;;;;5042524;28;20222;-57
2024/02/25 00:40:58;;;;;;;2.40;1.80;;;1.50;99.90;;;;;;5057486;28;20697;-57
2024/02/25 00:43:24;;;;;;;1.53;1.30;;;1.50;99.90;;;;;;5057243;28;20162;-57
2024/02/25 00:45:49;;;;;;;1.40;1.30;;;1.50;99.90;;;;;;5057410;28;20201;-57
2024/02/25 00:48:15;;;;;;;1.90;1.80;;;1.50;99.90;;;;;;5056022;28;20179;-57
2024/02/25 00:50:41;;;;;;;1.87;1.60;;;1.50;99.90;;;;;;5057218;28;20180;-57
2024/02/25 00:53:07;;;;;;;2.17;2.00;;;1.50;99.90;;;;;;5057038;28;20571;-57
2024/02/25 00:55:33;;;;;;;2.08;1.70;;;1.40;99.90;;;;;;5037389;28;20205;-57
2024/02/25 00:57:58;;;;;;;1.70;1.60;;;1.40;99.90;;;;;;5037022;28;20659;-56
2024/02/25 01:00:24;;;;;;;1.90;1.27;;;1.40;99.90;;;;;;5036896;28;20172;-57
2024/02/25 01:02:49;;;;;;;1.73;1.53;;;1.40;99.90;;;;;;5033459;28;20176;-57
2024/02/25 01:05:16;;;;;;;1.40;1.30;;;1.40;99.90;;;;;;5034041;28;20668;-57
2024/02/25 01:07:43;;;;;;;1.75;1.65;;;1.40;99.90;;;;;;5043712;28;20245;-57
2024/02/25 01:10:09;;;;;;;1.23;1.13;;;1.40;99.90;;;;;;5053775;28;20561;-57
2024/02/25 01:12:34;;;;;;;1.33;1.20;;;1.30;99.90;;;;;;5053948;28;20180;-57
2024/02/25 01:15:00;;;;;;;3.30;1.80;;;1.20;99.90;;;;;;5053679;28;20443;-56
2024/02/25 01:17:26;;;;;;;3.47;2.10;;;1.20;99.90;;;;;;5053821;28;20177;-57
2024/02/25 01:19:51;;;;;;;3.37;2.37;;;1.30;99.90;;;;;;5039107;28;20193;-57
2024/02/25 01:22:17;;;;;;;2.90;1.90;;;1.30;99.90;;;;;;5045672;28;20181;-57
2024/02/25 01:24:42;;;;;;;1.87;1.30;;;1.30;99.90;;;;;;5033797;28;20198;-57
2024/02/25 01:27:08;;;;;;;2.03;1.83;;;1.30;99.90;;;;;;5033739;28;20219;-57
2024/02/25 01:29:34;;;;;;;2.87;1.60;;;1.30;99.90;;;;;;5033828;28;20197;-57
2024/02/25 01:31:59;;;;;;;2.57;1.70;;;1.30;99.90;;;;;;5034167;28;20182;-57
2024/02/25 01:34:27;;;;;;;3.77;2.87;;;1.20;99.90;;;;;;5052164;28;20639;-57
2024/02/25 01:36:54;;;;;;;4.70;1.95;;;1.20;99.90;;;;;;5103004;22;20214;-58
2024/02/25 01:39:22;;;;;;;2.00;1.55;;;1.20;99.90;;;;;;5061771;28;20182;-59
2024/02/25 01:41:53;;;;;;;3.10;1.63;;;1.20;99.90;;;;;;5054992;28;20237;-58
2024/02/25 01:44:19;;;;;;;1.42;1.33;;;1.20;99.90;;;;;;5059176;28;20215;-57
2024/02/25 01:46:45;;;;;;;3.23;1.70;;;1.20;99.90;;;;;;5073265;28;20234;-58
2024/02/25 01:49:15;;;;;;;1.40;1.30;;;1.20;99.90;;;;;;5073274;28;20474;-58
2024/02/25 01:51:42;;;;;;;1.70;1.33;;;1.20;99.90;;;;;;5073394;28;20246;-58
2024/02/25 01:54:13;;;;;;;1.27;1.17;;;1.20;99.90;;;;;;5072838;28;20229;-58
2024/02/25 01:56:39;;;;;;;1.20;1.10;;;1.10;99.90;;;;;;5065954;28;20227;-57
2024/02/25 01:59:05;;;;;;;1.13;1.13;;;1.10;99.90;;;;;;5048911;28;20190;-56
2024/02/25 02:01:35;;;;;;;1.30;1.00;;;1.20;99.90;;;;;;5040253;28;20561;-56
2024/02/25 02:04:01;;;;;;;1.50;1.50;;;1.20;99.90;;;;;;5053124;28;20404;-58
2024/02/25 02:06:27;;;;;;;1.23;1.13;;;1.30;99.90;;;;;;5052459;28;20720;-59
2024/02/25 02:08:53;;;;;;;1.30;1.20;;;1.30;99.90;;;;;;5047003;28;20174;-58
2024/02/25 02:11:20;;;;;;;1.52;1.30;;;1.30;99.90;;;;;;5045675;28;20605;-58
2024/02/25 02:13:46;;;;;;;1.50;1.40;;;1.20;99.90;;;;;;5052450;28;20196;-58
2024/02/25 02:16:13;;;;;;;2.97;1.55;;;1.20;99.90;;;;;;5052790;28;20194;-58
2024/02/25 02:18:47;;;;;;;1.30;1.20;;;1.20;99.90;;;;;;5052504;28;20173;-58
2024/02/25 02:21:19;;;;;;;2.20;2.00;;;1.20;99.90;;;;;;5050887;28;20207;-57
2024/02/25 02:23:46;;;;;;;1.75;1.05;;;1.20;99.90;;;;;;5052642;28;20172;-58
2024/02/25 02:26:12;;;;;;;1.58;1.15;;;1.10;99.90;;;;;;5052441;28;20263;-58
2024/02/25 02:28:38;;;;;;;2.28;1.70;;;1.20;99.90;;;;;;5050620;28;20174;-58
2024/02/25 02:31:04;;;;;;;1.02;0.95;;;1.10;99.90;;;;;;5033360;28;20593;-58
2024/02/25 02:33:29;;;;;;;2.33;1.13;;;1.10;99.90;;;;;;5036732;28;20175;-58
2024/02/25 02:35:55;;;;;;;0.97;0.97;;;1.10;99.90;;;;;;5052363;28;20456;-58
2024/02/25 02:38:21;;;;;;;1.30;1.10;;;1.20;99.90;;;;;;5052196;28;20180;-58
2024/02/25 02:40:47;;;;;;;1.17;1.13;;;1.20;99.90;;;;;;5035786;28;20234;-58
2024/02/25 02:43:13;;;;;;;1.53;1.40;;;1.10;99.90;;;;;;5034553;28;20624;-58
2024/02/25 02:45:39;;;;;;;1.52;1.42;;;1.10;99.90;;;;;;5052178;28;20201;-59
2024/02/25 02:48:08;;;;;;;1.92;1.10;;;1.10;99.90;;;;;;5051722;28;20164;-58
2024/02/25 02:50:33;;;;;;;1.50;0.80;;;1.10;99.90;;;;;;5051679;28;20559;-57
2024/02/25 02:52:59;;;;;;;2.30;1.73;;;1.10;99.90;;;;;;5033021;28;20185;-57
2024/02/25 02:55:24;;;;;;;1.47;1.37;;;1.00;99.90;;;;;;5032071;28;20203;-56
2024/02/25 02:57:51;;;;;;;2.67;1.33;;;1.00;99.90;;;;;;5031874;28;20184;-58
2024/02/25 03:00:17;;;;;;;1.02;0.93;;;1.00;99.90;;;;;;5032119;28;20256;-56
2024/02/25 03:02:42;;;;;;;1.45;1.35;;;1.10;99.90;;;;;;5031993;28;20671;-57
2024/02/25 03:05:08;;;;;;;1.90;1.30;;;1.10;99.90;;;;;;5031756;28;20259;-55
2024/02/25 03:07:34;;;;;;;1.20;1.20;;;1.10;99.90;;;;;;5031721;28;20165;-58
2024/02/25 03:09:59;;;;;;;1.37;1.10;;;1.10;99.90;;;;;;5033649;28;20670;-55
2024/02/25 03:12:25;;;;;;;0.90;0.90;;;1.10;99.90;;;;;;5031845;28;20202;-58
2024/02/25 03:14:50;;;;;;;0.87;0.87;;;1.00;99.90;;;;;;5031829;28;20298;-57
2024/02/25 03:17:17;;;;;;;4.10;1.30;;;1.00;99.90;;;;;;5031363;28;20195;-57
2024/02/25 03:19:43;;;;;;;1.08;0.68;;;1.10;99.90;;;;;;5031763;28;20553;-58
2024/02/25 03:22:09;;;;;;;1.43;1.27;;;1.00;99.90;;;;;;5032034;28;20176;-56
2024/02/25 03:24:36;;;;;;;3.70;0.53;;;1.00;99.90;;;;;;5031474;28;20221;-58
2024/02/25 03:27:02;;;;;;;1.85;0.82;;;1.00;99.90;;;;;;5031443;28;20273;-57
2024/02/25 03:29:28;;;;;;;1.13;0.82;;;1.00;99.90;;;;;;5036596;28;20223;-58
2024/02/25 03:31:54;;;;;;;1.43;1.10;;;1.00;99.90;;;;;;5049864;28;20664;-58
2024/02/25 03:34:19;;;;;;;1.17;1.13;;;0.90;99.90;;;;;;5051480;28;20172;-58
2024/02/25 03:36:45;;;;;;;0.93;0.77;;;0.90;99.90;;;;;;5051163;28;20687;-57
2024/02/25 03:39:11;;;;;;;1.87;0.53;;;0.90;99.90;;;;;;5046014;28;20177;-58
2024/02/25 03:41:36;;;;;;;0.57;0.57;;;0.90;99.90;;;;;;5031716;28;20753;-58
2024/02/25 03:44:02;;;;;;;1.63;1.00;;;1.00;99.90;;;;;;5031540;28;20222;-57
2024/02/25 03:46:27;;;;;;;0.60;0.60;;;1.00;99.90;;;;;;5030747;28;20572;-58
2024/02/25 03:48:53;;;;;;;1.83;1.10;;;1.00;99.90;;;;;;5031567;28;20180;-58
2024/02/25 03:51:19;;;;;;;1.63;1.03;;;1.00;99.90;;;;;;5031407;28;20182;-58
2024/02/25 03:53:44;;;;;;;1.17;1.17;;;1.00;99.90;;;;;;5031247;28;20238;-58
2024/02/25 03:56:10;;;;;;;0.97;0.87;;;1.00;99.90;;;;;;5031277;28;20196;-58
2024/02/25 03:58:36;;;;;;;0.60;0.60;;;0.90;99.90;;;;;;5031116;28;20185;-58
2024/02/25 04:01:02;;;;;;;0.60;0.60;;;0.90;99.90;;;;;;5031319;28;20481;-58
2024/02/25 04:03:27;;;;;;;0.73;0.70;;;0.90;99.90;;;;;;5031235;28;20175;-58
2024/02/25 04:05:53;;;;;;;0.80;0.80;;;0.90;99.90;;;;;;5031067;28;20230;-58
2024/02/25 04:08:19;;;;;;;1.73;0.87;;;0.90;99.90;;;;;;5039253;28;20259;-58
2024/02/25 04:10:45;;;;;;;0.80;0.80;;;0.90;99.90;;;;;;5031356;28;20195;-58
2024/02/25 04:13:11;;;;;;;1.03;0.87;;;1.00;99.90;;;;;;5031259;28;20594;-58
2024/02/25 04:15:36;;;;;;;1.42;0.70;;;1.00;99.90;;;;;;5031037;28;20195;-58
2024/02/25 04:18:03;;;;;;;0.83;0.83;;;1.00;99.90;;;;;;5030972;28;20237;-58
2024/02/25 04:20:30;;;;;;;1.45;1.35;;;1.00;99.90;;;;;;5031128;28;20207;-58
2024/02/25 04:22:55;;;;;;;0.52;0.52;;;0.90;99.90;;;;;;5031532;28;20184;-58
2024/02/25 04:25:21;;;;;;;0.57;0.50;;;0.90;99.90;;;;;;5031036;28;20403;-58
2024/02/25 04:27:47;;;;;;;1.20;0.80;;;0.90;99.90;;;;;;5030876;28;20168;-59
2024/02/25 04:30:13;;;;;;;0.90;0.70;;;0.90;99.90;;;;;;5032462;28;20183;-59
2024/02/25 04:32:40;;;;;;;1.80;1.67;;;0.90;99.90;;;;;;5031019;28;20508;-58
2024/02/25 04:35:06;;;;;;;0.93;0.80;;;0.90;99.90;;;;;;5048897;28;20786;-58
2024/02/25 04:37:32;;;;;;;1.10;1.10;;;1.00;99.90;;;;;;5052846;28;20208;-58
2024/02/25 04:39:58;;;;;;;0.60;0.50;;;1.10;99.90;;;;;;5054334;28;20189;-58
2024/02/25 04:42:23;;;;;;;1.03;0.50;;;1.20;99.90;;;;;;5054795;28;20192;-57
2024/02/25 04:44:49;;;;;;;0.47;0.47;;;1.20;99.90;;;;;;5054305;28;20268;-57
2024/02/25 04:47:14;;;;;;;0.77;0.70;;;1.20;99.90;;;;;;5054173;28;20208;-59
2024/02/25 04:49:40;;;;;;;0.70;0.70;;;1.30;99.90;;;;;;5054237;28;20292;-57
2024/02/25 04:52:09;;;;;;;0.83;0.80;;;1.40;99.90;;;;;;5054410;28;20170;-58
2024/02/25 04:54:35;;;;;;;0.80;0.55;;;1.50;99.90;;;;;;5054096;28;20185;-58
2024/02/25 04:57:01;;;;;;;0.97;0.77;;;1.60;99.90;;;;;;5054245;28;20201;-59
2024/02/25 04:59:26;;;;;;;1.43;0.80;;;1.60;99.90;;;;;;5053886;28;20722;-58
2024/02/25 05:01:53;;;;;;;1.03;0.80;;;1.60;99.90;;;;;;5053989;28;20618;-57
2024/02/25 05:04:18;;;;;;;3.80;0.85;;;1.70;99.90;;;;;;5053927;28;20566;-58
2024/02/25 05:06:44;;;;;;;1.17;0.73;;;1.70;99.90;;;;;;5054123;28;20214;-58
2024/02/25 05:09:10;;;;;;;0.70;0.57;;;1.70;99.90;;;;;;5049907;28;20181;-58
2024/02/25 05:11:35;;;;;;;1.03;0.93;;;1.80;99.90;;;;;;5046306;28;20668;-56
2024/02/25 05:14:01;;;;;;;1.20;0.90;;;1.90;99.90;;;;;;5053777;28;20652;-58
2024/02/25 05:16:29;;;;;;;1.43;0.80;;;1.80;99.90;;;;;;5052206;28;20220;-58
2024/02/25 05:18:55;;;;;;;1.13;1.02;;;1.90;99.90;;;;;;5048930;28;20176;-59
2024/02/25 05:21:21;;;;;;;0.70;0.67;;;1.90;99.90;;;;;;5040391;28;20271;-58
2024/02/25 05:23:46;;;;;;;2.13;0.60;;;1.90;99.90;;;;;;5033858;28;20352;-58
2024/02/25 05:26:12;;;;;;;0.70;0.70;;;2.00;99.90;;;;;;5053676;28;20510;-58
2024/02/25 05:28:38;;;;;;;0.70;0.70;;;2.00;99.90;;;;;;5051163;28;20165;-58
2024/02/25 05:31:04;;;;;;;0.60;0.60;;;2.00;99.90;;;;;;5053406;28;20227;-58
2024/02/25 05:33:29;;;;;;;2.63;0.80;;;2.00;99.90;;;;;;5052059;28;20197;-58
2024/02/25 05:35:55;;;;;;;0.63;0.60;;;2.00;99.90;;;;;;5053277;28;20447;-58
2024/02/25 05:38:21;;;;;;;1.00;0.70;;;2.10;99.90;;;;;;5049176;28;20575;-58
2024/02/25 05:40:46;;;;;;;0.70;0.70;;;2.10;99.90;;;;;;5033804;28;20178;-58
2024/02/25 05:43:12;;;;;;;4.73;0.70;;;2.20;99.90;;;;;;5034594;28;20254;-58
2024/02/25 05:45:39;;;;;;;0.90;0.90;;;2.20;99.90;;;;;;5033450;28;20245;-58
2024/02/25 05:48:05;;;;;;;0.65;0.65;;;2.30;99.90;;;;;;5034445;28;20186;-58
2024/02/25 05:50:31;;;;;;;0.75;0.75;;;2.20;99.90;;;;;;5033376;28;20628;-58
2024/02/25 05:52:56;;;;;;;0.60;0.60;;;2.20;99.90;;;;;;5034634;28;20178;-58
2024/02/25 05:55:22;;;;;;;0.73;0.70;;;2.30;99.90;;;;;;5046978;28;20204;-58
2024/02/25 05:57:48;;;;;;;0.87;0.73;;;2.30;99.90;;;;;;5051415;28;20206;-58
2024/02/25 06:00:14;;;;;;;1.00;0.70;;;2.30;99.90;;;;;;5043668;28;20206;-59
2024/02/25 06:02:44;;;;;;;2.60;1.10;;;2.40;99.90;;;;;;5033023;28;20189;-57
2024/02/25 06:05:16;;;;;;;0.90;0.90;;;2.40;99.90;;;;;;5033335;28;20248;-59
2024/02/25 06:07:45;;;;;;;1.20;0.90;;;2.30;99.90;;;;;;5032740;28;20187;-58
2024/02/25 06:10:11;;;;;;;1.15;1.15;;;2.20;99.90;;;;;;5032811;28;20173;-56
2024/02/25 06:12:38;;;;;;;1.25;1.25;;;2.30;99.90;;;;;;5032924;28;20180;-58
2024/02/25 06:15:05;;;;;;;1.33;1.17;;;2.20;99.90;;;;;;5032858;28;20186;-59
2024/02/25 06:17:31;;;;;;;2.60;1.15;;;2.20;99.90;;;;;;5032602;28;20178;-58
2024/02/25 06:19:56;;;;;;;1.40;0.73;;;2.20;99.90;;;;;;5033074;28;20197;-58
2024/02/25 06:22:22;;;;;;;0.60;0.60;;;2.00;99.90;;;;;;5032782;28;20198;-58
2024/02/25 06:24:47;;;;;;;0.67;0.67;;;2.10;99.90;;;;;;5032812;28;20521;-58
2024/02/25 06:27:14;;;;;;;0.70;0.70;;;2.20;99.90;;;;;;5032334;28;20700;-58
2024/02/25 06:29:40;;;;;;;1.35;1.00;;;2.50;99.90;;;;;;5033541;28;20218;-59
2024/02/25 06:32:06;;;;;;;0.98;0.80;;;2.60;99.90;;;;;;5052769;28;20594;-56
2024/02/25 06:34:31;;;;;;;0.73;0.60;;;2.70;99.90;;;;;;5052609;28;20170;-58
2024/02/25 06:36:57;;;;;;;1.03;1.03;;;2.80;99.90;;;;;;5052015;28;20973;-58
2024/02/25 06:39:23;;;;;;;1.03;0.93;;;2.70;99.90;;;;;;5051957;28;20258;-58
2024/02/25 06:41:48;;;;;;;1.23;1.13;;;2.70;99.90;;;;;;5052354;28;20178;-58
2024/02/25 06:44:14;;;;;;;1.17;1.07;;;2.70;99.90;;;;;;5052334;28;20222;-58
2024/02/25 06:46:40;;;;;;;0.80;0.80;;;2.70;99.90;;;;;;5052143;28;20194;-58
2024/02/25 06:49:06;;;;;;;1.20;1.10;;;2.80;99.90;;;;;;5052000;28;20249;-58
2024/02/25 06:51:32;;;;;;;1.38;1.10;;;2.80;99.90;;;;;;5052226;28;20170;-59
2024/02/25 06:53:58;;;;;;;1.77;1.47;;;2.80;99.70;;;;;;5051619;28;20174;-58
2024/02/25 06:56:24;;;;;;;2.00;1.20;;;2.80;99.70;;;;;;5052060;28;20436;-58
2024/02/25 06:58:49;;;;;;;1.17;1.07;;;2.80;99.80;;;;;;5051189;28;20424;-58
2024/02/25 07:01:16;;;;;;;1.50;1.40;;;2.80;99.90;;;;;;5051934;28;20185;-58
2024/02/25 07:03:45;;;;;;;2.78;2.08;;;2.70;99.90;;;;;;5052167;28;20646;-58
2024/02/25 07:06:14;;;;;;;5.10;3.33;;;2.80;99.90;;;;;;5052043;28;20208;-58
2024/02/25 07:08:40;;;;;;;2.40;2.05;;;2.90;99.90;;;;;;5051718;28;20170;-58
2024/02/25 07:11:17;;;;;;;1.90;1.75;;;2.90;99.90;;;;;;5052004;28;20648;-58
2024/02/25 07:13:43;;;;;;;3.20;1.90;;;2.90;99.90;;;;;;5051973;28;20312;-59
2024/02/25 07:16:09;;;;;;;1.23;1.10;;;3.00;99.90;;;;;;5042008;28;20201;-59
2024/02/25 07:18:34;;;;;;;0.80;0.80;;;3.00;99.90;;;;;;5051595;28;20181;-59
2024/02/25 07:21:00;;;;;;;2.23;1.03;;;3.10;99.90;;;;;;5051927;28;20539;-57
2024/02/25 07:23:25;;;;;;;2.20;1.13;;;3.20;99.90;;;;;;5051552;28;20169;-59
2024/02/25 07:25:51;;;;;;;1.40;1.40;;;3.30;99.90;;;;;;5051136;28;20199;-58
2024/02/25 07:28:17;;;;;;;2.60;1.10;;;3.30;99.90;;;;;;5051305;28;20174;-58
2024/02/25 07:30:42;;;;;;;0.70;0.70;;;3.30;99.90;;;;;;5051783;28;20166;-59
2024/02/25 07:33:09;;;;;;;1.23;1.13;;;3.40;99.90;;;;;;5051574;28;20203;-59
2024/02/25 07:35:35;;;;;;;2.47;1.90;;;3.40;99.90;;;;;;5051375;28;20259;-60
2024/02/25 07:38:01;;;;;;;7.30;3.37;;;3.50;99.90;;;;;;5051187;28;20639;-59
2024/02/25 07:40:27;;;;;;;5.10;3.03;;;3.50;99.90;;;;;;5051499;28;20420;-58
2024/02/25 07:42:53;;;;;;;3.97;2.40;;;3.50;99.90;;;;;;5051450;28;20178;-59
2024/02/25 07:45:18;;;;;;;2.47;2.27;;;3.60;99.90;;;;;;5051183;28;20194;-59
2024/02/25 07:47:44;;;;;;;5.67;4.33;;;3.70;99.90;;;;;;5051022;28;20404;-59
2024/02/25 07:50:10;;;;;;;11.50;4.97;;;3.80;99.90;;;;;;5051288;28;20244;-58
2024/02/25 07:52:36;;;;;;;5.55;2.35;;;3.90;99.40;;;;;;5051348;28;20220;-58
2024/02/25 07:55:02;;;;;;;8.93;2.90;;;4.00;99.10;;;;;;5051298;28;20174;-58
2024/02/25 07:57:28;;;;;;;6.18;2.80;;;4.00;99.10;;;;;;5050876;28;20178;-59
2024/02/25 07:59:54;;;;;;;2.90;2.10;;;3.90;99.00;;;;;;5051359;28;20186;-59
2024/02/25 08:02:19;;;;;;;2.87;2.20;;;3.90;99.10;;;;;;5050973;28;20178;-59
2024/02/25 08:04:45;;;;;;;3.70;2.37;;;3.90;99.20;;;;;;5051080;28;20184;-57
2024/02/25 08:07:10;;;;;;;3.40;2.10;;;3.90;99.20;;;;;;5050672;28;20636;-59
2024/02/25 08:09:36;;;;;;;5.63;2.87;;;3.90;98.80;;;;;;5051216;28;20226;-58
2024/02/25 08:12:02;;;;;;;5.70;3.23;;;3.90;98.80;;;;;;5054454;28;20162;-59
2024/02/25 08:14:28;;;;;;;7.57;3.28;;;3.90;99.10;;;;;;5055330;28;20441;-58
2024/02/25 08:16:54;;;;;;;4.37;2.87;;;3.90;99.30;;;;;;5054944;28;20232;-58
2024/02/25 08:19:20;;;;;;;2.85;2.72;;;4.00;99.40;;;;;;5054872;28;20186;-59
2024/02/25 08:21:45;;;;;;;3.33;2.40;;;4.10;99.40;;;;;;5055041;28;20177;-58
2024/02/25 08:24:11;;;;;;;1.67;1.50;;;4.30;99.10;;;;;;5054857;28;20605;-58
2024/02/25 08:26:38;;;;;;;2.50;2.13;;;4.50;99.50;;;;;;5054621;28;20206;-58
2024/02/25 08:29:04;;;;;;;4.22;3.28;;;4.70;99.30;;;;;;5054659;28;20208;-57
2024/02/25 08:31:30;;;;;;;2.93;2.50;;;4.90;99.10;;;;;;5055002;28;20281;-59
2024/02/25 08:33:56;;;;;;;2.85;2.38;;;5.10;98.20;;;;;;5054849;28;20193;-58
2024/02/25 08:36:22;;;;;;;2.13;2.03;;;5.20;98.20;;;;;;5054519;28;20236;-59
2024/02/25 08:38:48;;;;;;;2.23;2.03;;;5.30;98.10;;;;;;5054677;28;20961;-59
2024/02/25 08:41:14;;;;;;;3.17;2.40;;;5.50;98.20;;;;;;5054616;28;20830;-58
2024/02/25 08:43:39;;;;;;;2.50;2.30;;;5.70;97.90;;;;;;5054621;28;20251;-58
2024/02/25 08:46:05;;;;;;;4.00;3.60;;;5.80;97.20;;;;;;5054637;28;20794;-58
2024/02/25 08:48:30;;;;;;;5.47;3.20;;;6.00;97.70;;;;;;5054405;28;20650;-59
2024/02/25 08:50:56;;;;;;;5.03;4.37;;;6.20;98.00;;;;;;5054539;28;20177;-58
2024/02/25 08:53:22;;;;;;;6.30;4.60;;;6.30;97.30;;;;;;5055268;28;20166;-58
2024/02/25 08:55:48;;;;;;;7.47;4.70;;;6.60;97.80;;;;;;5054783;28;20200;-60
2024/02/25 08:58:13;;;;;;;8.00;5.57;;;7.00;97.90;;;;;;5054314;28;20452;-59
2024/02/25 09:00:40;;;;;;;5.10;3.80;;;7.50;97.10;;;;;;5054350;28;20173;-59
2024/02/25 09:03:06;;;;;;;4.90;4.00;;;8.00;96.30;;;;;;5054419;28;20256;-59
2024/02/25 09:05:31;;;;;;;5.00;3.90;;;8.50;95.70;;;;;;5054151;28;20286;-60
2024/02/25 09:07:59;;;;;;;4.10;3.70;;;9.00;93.20;;;;;;5053934;28;20261;-59
2024/02/25 09:10:24;;;;;;;8.07;4.50;;;9.80;92.90;;;;;;5054128;28;20586;-59
2024/02/25 09:12:50;;;;;;;6.93;4.87;;;10.70;91.70;;;;;;5053997;28;20501;-59
2024/02/25 09:15:19;;;;;;;5.33;3.73;;;12.20;90.80;;;;;;5054039;28;20548;-59
2024/02/25 09:17:45;;;;;;;3.43;3.13;;;14.10;86.20;;;;;;5050254;28;20178;-59
2024/02/25 09:20:11;;;;;;;4.77;4.13;;;16.00;74.90;;;;;;5053826;28;20425;-60
2024/02/25 09:22:37;;;;;;;6.90;5.10;;;17.50;68.80;;;;;;5053456;28;20543;-59
2024/02/25 09:25:03;;;;;;;7.00;4.83;;;18.30;62.20;;;;;;5054195;28;20384;-60
2024/02/25 09:27:29;;;;;;;5.43;4.57;;;18.60;59.10;;;;;;5048510;28;20577;-60
2024/02/25 09:29:55;;;;;;;5.40;4.70;;;18.90;57.50;;;;;;5053844;28;20177;-60
2024/02/25 09:32:21;;;;;;;4.27;3.43;;;19.10;57.60;;;;;;5053591;28;20256;-60
2024/02/25 09:34:46;;;;;;;4.63;3.80;;;19.20;55.40;;;;;;5053641;28;20409;-62
2024/02/25 09:37:13;;;;;;;7.00;5.57;;;19.40;54.80;;;;;;5052266;28;20463;-60
2024/02/25 09:39:40;;;;;;;5.30;4.03;;;19.70;52.90;;;;;;5053595;28;20189;-61
2024/02/25 09:42:06;;;;;;;4.87;4.27;;;19.70;54.90;;;;;;5053908;28;20412;-60
2024/02/25 09:44:33;;;;;;;3.93;2.23;;;19.20;53.50;;;;;;5053560;28;20394;-60
2024/02/25 09:47:00;;;;;;;3.50;2.03;;;18.50;53.00;;;;;;5053267;28;20547;-61
2024/02/25 09:49:28;;;;;;;2.40;2.10;;;18.00;54.70;;;;;;5053064;28;20440;-61
2024/02/25 09:51:54;;;;;;;2.93;1.93;;;17.80;54.00;;;;;;5053809;28;20435;-61
2024/02/25 09:54:20;;;;;;;3.67;2.17;;;17.60;53.80;;;;;;5053232;28;20416;-60
2024/02/25 09:56:50;;;;;;;1.87;1.60;;;17.20;53.50;;;;;;5053150;28;20908;-60
2024/02/25 09:59:16;;;;;;;2.43;2.00;;;16.70;55.20;;;;;;5053194;28;20417;-60
2024/02/25 10:01:46;;;;;;;1.97;1.87;;;16.50;56.30;;;;;;5053131;28;20422;-60
2024/02/25 10:04:13;;;;;;;1.53;1.43;;;16.50;55.00;;;;;;5053132;28;20441;-61
2024/02/25 10:06:38;;;;;;;2.70;1.90;;;16.60;55.60;;;;;;5052876;28;20825;-61
2024/02/25 10:09:06;;;;;;;2.03;1.70;;;16.40;55.40;;;;;;5052966;28;20416;-60
2024/02/25 10:11:33;;;;;;;5.83;1.93;;;16.10;56.00;;;;;;5052785;28;20178;-60
2024/02/25 10:13:58;;;;;;;1.87;1.20;;;16.10;56.70;;;;;;5052801;28;20404;-60
2024/02/25 10:16:24;;;;;;;1.67;1.33;;;16.20;56.90;;;;;;5052709;28;20997;-60
2024/02/25 10:18:51;;;;;;;1.23;1.07;;;16.50;56.90;;;;;;5052536;28;20203;-60
2024/02/25 10:21:20;;;;;;;1.27;1.07;;;17.30;57.10;;;;;;5051976;28;20185;-60
2024/02/25 10:23:52;;;;;;;1.40;1.30;;;17.80;52.60;;;;;;5049482;28;20961;-60
2024/02/25 10:26:26;;;;;;;1.87;1.13;;;18.30;50.80;;;;;;5049476;28;20991;-61
2024/02/25 10:29:21;;;;;;;1.53;1.00;;;18.90;50.40;;;;;;5052118;28;20512;-60
2024/02/25 10:31:57;;;;;;;1.30;1.20;;;18.40;49.00;;;;;;5029405;28;20413;-60
2024/02/25 10:34:23;;;;;;;1.10;0.87;;;18.60;47.80;;;;;;5031896;28;20412;-61
2024/02/25 10:36:50;;;;;;;0.70;0.70;;;18.50;49.10;;;;;;5031743;28;20540;-60
2024/02/25 10:39:16;;;;;;;0.93;0.93;;;18.70;49.30;;;;;;5032399;28;20182;-60
2024/02/25 10:41:43;;;;;;;0.77;0.70;;;19.10;48.90;;;;;;5032351;28;20384;-60
2024/02/25 10:44:11;;;;;;;0.83;0.63;;;19.30;47.10;;;;;;5032455;28;20180;-60
2024/02/25 10:46:44;;;;;;;0.90;0.70;;;19.00;45.30;;;;;;5032140;28;20504;-61
2024/02/25 10:49:14;;;;;;;0.70;0.60;;;18.00;45.20;;;;;;5032098;28;20863;-60
2024/02/25 10:51:40;;;;;;;1.50;1.03;;;17.20;45.40;;;;;;5032398;28;20400;-59
2024/02/25 10:54:09;;;;;;;0.60;0.60;;;16.40;45.90;;;;;;5032205;28;20949;-60
2024/02/25 10:56:38;;;;;;;1.27;0.80;;;15.50;46.70;;;;;;5031995;28;20437;-60
2024/02/25 10:59:08;;;;;;;0.60;0.60;;;14.40;47.30;;;;;;5032065;28;20420;-60
2024/02/25 11:01:38;;;;;;;0.50;0.50;;;14.10;48.70;;;;;;5032349;28;20808;-60
2024/02/25 11:04:04;;;;;;;0.50;0.50;;;13.80;47.30;;;;;;5032277;28;20461;-60
2024/02/25 11:06:32;;;;;;;1.33;0.60;;;13.60;46.60;;;;;;5031903;28;20950;-60
2024/02/25 11:09:16;;;;;;;0.70;0.50;;;13.20;48.20;;;;;;5031216;28;20404;-60
2024/02/25 11:11:43;;;;;;;0.70;0.70;;;13.10;48.50;;;;;;5031987;28;20432;-60
2024/02/25 11:14:15;;;;;;;1.60;0.53;;;12.70;46.90;;;;;;5032109;28;20468;-60
2024/02/25 11:16:47;;;;;;;0.50;0.50;;;12.50;50.30;;;;;;5031782;28;20469;-60
2024/02/25 11:19:20;;;;;;;1.10;0.63;;;12.50;49.30;;;;;;5031670;28;20409;-60
2024/02/25 11:21:56;;;;;;;0.80;0.80;;;12.20;48.50;;;;;;5031884;28;20421;-60
2024/02/25 11:24:45;;;;;;;0.77;0.77;;;11.90;49.50;;;;;;5031793;28;20420;-60
2024/02/25 11:27:12;;;;;;;1.67;0.80;;;11.20;51.30;;;;;;5031517;28;20838;-60
2024/02/25 11:29:38;;;;;;;0.70;0.70;;;10.70;52.20;;;;;;5031731;28;20683;-60
2024/02/25 11:32:04;;;;;;;0.70;0.60;;;10.70;53.20;;;;;;5031619;28;20167;-60
2024/02/25 11:34:31;;;;;;;1.63;0.60;;;10.80;53.10;;;;;;5031836;28;20440;-60
2024/02/25 11:37:02;;;;;;;0.70;0.70;;;10.80;53.10;;;;;;5031476;28;20210;-59
2024/02/25 11:39:29;;;;;;;0.57;0.57;;;10.70;54.30;;;;;;5031516;28;20175;-59
2024/02/25 11:42:00;;;;;;;0.80;0.60;;;10.80;55.20;;;;;;5031464;28;20405;-60
2024/02/25 11:44:27;;;;;;;1.42;0.60;;;10.80;56.70;;;;;;5031605;28;20796;-60
2024/02/25 11:46:57;;;;;;;0.73;0.52;;;10.90;54.00;;;;;;5030844;28;20222;-60
2024/02/25 11:49:25;;;;;;;0.55;0.50;;;11.00;53.80;;;;;;5031521;28;20250;-60
2024/02/25 11:51:51;;;;;;;1.20;0.63;;;10.90;52.50;;;;;;5031621;28;20714;-60
2024/02/25 11:54:17;;;;;;;0.57;0.57;;;10.40;53.10;;;;;;5031535;28;20174;-60
2024/02/25 11:56:42;;;;;;;0.67;0.67;;;10.00;52.70;;;;;;5031090;28;20433;-59
2024/02/25 11:59:10;;;;;;;0.47;0.47;;;9.90;54.40;;;;;;5031093;28;20320;-59
2024/02/25 12:01:37;;;;;;;0.88;0.82;;;9.80;53.70;;;;;;5031231;28;20183;-60
2024/02/25 12:04:04;;;;;;;0.77;0.75;;;9.70;55.00;;;;;;5031555;28;20193;-60
2024/02/25 12:06:32;;;;;;;1.30;1.02;;;9.90;54.80;;;;;;5031164;28;20699;-60
2024/02/25 12:08:59;;;;;;;1.08;1.05;;;9.90;54.10;;;;;;5031268;28;20182;-60
2024/02/25 12:11:25;;;;;;;4.93;0.98;;;10.10;54.10;;;;;;5031335;28;20167;-60
2024/02/25 12:14:20;;;;;;;1.98;1.58;;;10.20;54.40;;;;;;5031526;28;20836;-60
2024/02/25 12:16:48;;;;;;;1.50;1.15;;;10.00;51.70;;;;;;5022345;28;20215;-60
2024/02/25 12:19:17;;;;;;;2.20;1.27;;;9.70;51.80;;;;;;5030819;28;20190;-60
2024/02/25 12:21:50;;;;;;;1.20;1.10;;;9.60;51.80;;;;;;5031284;28;20178;-60
2024/02/25 12:24:17;;;;;;;1.58;0.90;;;9.50;52.50;;;;;;5031503;28;20214;-60
2024/02/25 12:26:54;;;;;;;1.10;0.90;;;9.50;51.90;;;;;;5031012;28;20206;-60
2024/02/25 12:29:27;;;;;;;1.33;1.02;;;9.30;52.60;;;;;;5031020;28;20166;-59
2024/02/25 12:31:54;;;;;;;1.40;1.00;;;9.40;52.70;;;;;;5031190;28;20226;-60
2024/02/25 12:34:20;;;;;;;1.05;0.95;;;9.30;51.70;;;;;;5031091;28;20229;-59
2024/02/25 12:36:47;;;;;;;1.38;0.85;;;8.90;54.30;;;;;;5030927;28;20222;-60
2024/02/25 12:39:20;;;;;;;1.52;1.23;;;8.70;52.50;;;;;;5030915;28;20699;-60
2024/02/25 12:41:58;;;;;;;2.55;1.95;;;8.80;54.10;;;;;;5031224;28;20183;-59
2024/02/25 12:44:25;;;;;;;1.52;1.42;;;8.80;53.40;;;;;;5031095;28;20179;-60
2024/02/25 12:46:51;;;;;;;1.00;1.00;;;8.90;53.50;;;;;;5030540;28;20214;-60
2024/02/25 12:49:17;;;;;;;1.70;0.95;;;9.00;53.60;;;;;;5030710;28;20183;-60
2024/02/25 12:51:43;;;;;;;1.30;0.93;;;9.20;52.90;;;;;;5031011;28;20186;-60
2024/02/25 12:54:11;;;;;;;1.07;0.90;;;9.20;51.20;;;;;;5031047;28;20248;-60